Time;durP1;ratioP1;P1;durP2;ratioP2;P2;SDS_P1;SDS_P2;PMS_P1;PMS_P2;Temp;Humidity;BMP_temperature;BMP_pressure;BME280_temperature;BME280_humidity;BME280_pressure;Samples;Min_cycle;Max_cycle;Signal;HPM_P1;HPM_P2
2023/08/03 00:00:40;;;;;;;377.17;351.80;;;14.90;85.80;;;;;;6199412;23;20020;-92
2023/08/03 00:09:26;;;;;;;;;;;;;;;;;;;;;
2023/08/03 00:12:26;;;;;;;391.58;366.00;;;15.00;85.90;;;;;;6225585;22;20015;-92
2023/08/03 00:14:53;;;;;;;352.88;329.42;;;15.00;86.10;;;;;;6114618;23;20360;-92
2023/08/03 00:17:36;;;;;;;406.65;379.63;;;15.00;86.10;;;;;;6137678;23;20019;-92
2023/08/03 00:20:19;;;;;;;;;;;;;;;;;;;;;
2023/08/03 00:22:53;;;;;;;401.83;374.23;;;15.00;86.00;;;;;;6232258;22;20573;-91
2023/08/03 00:25:24;;;;;;;374.90;349.17;;;15.00;86.10;;;;;;6195544;23;20031;-91
2023/08/03 00:27:50;;;;;;;394.80;368.08;;;15.00;86.00;;;;;;6203863;23;20482;-92
2023/08/03 00:30:45;;;;;;;407.83;380.90;;;15.10;86.00;;;;;;6218055;23;20042;-91
2023/08/03 00:33:16;;;;;;;;;;;15.10;86.00;;;;;;6195487;23;20099;-90
2023/08/03 00:35:45;;;;;;;362.10;337.92;;;15.10;86.10;;;;;;6217173;23;19922;-90
2023/08/03 00:38:13;;;;;;;377.08;352.23;;;15.10;86.00;;;;;;6210054;23;20432;-92
2023/08/03 00:40:52;;;;;;;;;;;;;;;;;;;;;
2023/08/03 00:43:30;;;;;;;390.75;365.05;;;15.10;86.00;;;;;;6229829;22;20038;-91
2023/08/03 00:46:26;;;;;;;;;;;;;;;;;;;;;
2023/08/03 00:49:13;;;;;;;409.25;382.63;;;15.20;85.80;;;;;;6147818;23;20048;-92
2023/08/03 00:52:26;;;;;;;392.30;366.05;;;15.10;85.80;;;;;;6187122;23;20025;-91
2023/08/03 00:55:58;;;;;;;360.65;336.23;;;15.10;85.80;;;;;;6116469;23;20025;-91
2023/08/03 01:05:18;;;;;;;399.30;372.40;;;15.20;85.90;;;;;;6012405;23;20063;-92
2023/08/03 01:11:49;;;;;;;367.33;342.65;;;15.20;85.90;;;;;;5965308;23;20027;-91
2023/08/03 01:14:52;;;;;;;385.65;359.83;;;15.20;85.90;;;;;;5955814;23;20030;-91
2023/08/03 01:17:40;;;;;;;373.13;347.90;;;15.20;85.90;;;;;;6112437;23;20026;-91
2023/08/03 01:20:25;;;;;;;393.65;367.23;;;15.20;86.00;;;;;;6148491;23;20021;-92
2023/08/03 01:23:01;;;;;;;407.83;380.52;;;15.20;85.90;;;;;;6105856;23;20029;-92
2023/08/03 01:25:40;;;;;;;397.08;370.15;;;15.20;85.90;;;;;;6101930;23;20079;-92
2023/08/03 01:28:37;;;;;;;412.58;384.73;;;15.20;86.00;;;;;;6048215;23;20034;-91
2023/08/03 01:31:06;;;;;;;389.33;363.40;;;15.20;85.90;;;;;;6090363;23;20024;-92
2023/08/03 01:33:34;;;;;;;402.23;375.83;;;15.20;86.00;;;;;;6146787;23;20027;-91
2023/08/03 01:36:22;;;;;;;418.08;390.23;;;15.20;85.90;;;;;;6133811;23;20017;-92
2023/08/03 01:39:24;;;;;;;;;;;;;;;;;;;;;
2023/08/03 01:41:56;;;;;;;406.02;379.67;;;15.20;86.00;;;;;;6178962;23;20374;-92
2023/08/03 01:44:41;;;;;;;;;;;15.20;86.00;;;;;;6113292;23;20048;-91
2023/08/03 01:47:18;;;;;;;385.05;359.48;;;15.10;85.90;;;;;;6081935;23;19919;-90
2023/08/03 01:50:13;;;;;;;387.10;361.88;;;15.20;85.90;;;;;;6128866;23;20060;-92
2023/08/03 01:52:48;;;;;;;400.73;373.85;;;15.10;86.00;;;;;;6121874;23;20095;-92
2023/08/03 01:56:21;;;;;;;;;;;;;;;;;;;;;
2023/08/03 01:59:11;;;;;;;368.55;344.65;;;15.20;85.90;;;;;;6148922;23;20020;-92
2023/08/03 02:04:48;;;;;;;409.58;382.98;;;15.20;86.10;;;;;;6143265;23;20096;-92
2023/08/03 02:08:16;;;;;;;398.65;371.75;;;15.20;86.00;;;;;;6127503;23;20028;-92
2023/08/03 02:10:58;;;;;;;385.73;360.67;;;15.20;86.10;;;;;;6176967;23;20028;-91
2023/08/03 02:14:10;;;;;;;404.48;376.48;;;15.20;86.20;;;;;;6133092;23;20614;-92
2023/08/03 02:17:15;;;;;;;;;;;;;;;;;;;;;
2023/08/03 02:22:42;;;;;;;406.25;379.13;;;15.30;86.30;;;;;;6117196;23;20065;-91
2023/08/03 02:25:23;;;;;;;;;;;;;;;;;;;;;
2023/08/03 02:28:04;;;;;;;;;;;15.30;86.20;;;;;;6137901;23;20325;-92
2023/08/03 02:30:39;;;;;;;397.75;371.73;;;15.30;86.30;;;;;;6117621;23;19916;-92
2023/08/03 02:33:35;;;;;;;393.20;366.67;;;15.30;86.30;;;;;;6145855;23;20028;-92
2023/08/03 02:36:39;;;;;;;;;;;;;;;;;;;;;
2023/08/03 02:39:36;;;;;;;407.85;381.85;;;15.30;86.30;;;;;;6184751;23;20304;-92
2023/08/03 02:42:05;;;;;;;423.88;394.80;;;15.40;86.30;;;;;;6157449;23;20095;-91
2023/08/03 02:44:43;;;;;;;458.63;426.00;;;15.40;86.30;;;;;;6161300;23;20103;-91
2023/08/03 02:47:33;;;;;;;;;;;;;;;;;;;;;
2023/08/03 02:50:36;;;;;;;426.38;398.38;;;15.40;86.30;;;;;;6170315;23;20046;-92
2023/08/03 02:53:31;;;;;;;424.13;396.42;;;15.40;86.30;;;;;;6150110;23;20023;-91
2023/08/03 02:56:00;;;;;;;437.65;407.15;;;15.40;86.30;;;;;;6209719;23;20107;-92
2023/08/03 02:58:54;;;;;;;474.75;441.15;;;15.40;86.30;;;;;;6198257;22;20046;-92
2023/08/03 03:07:41;;;;;;;;;;;;;;;;;;;;;
2023/08/03 03:10:15;;;;;;;449.30;417.75;;;15.40;86.50;;;;;;6220390;23;20390;-92
2023/08/03 03:13:42;;;;;;;441.98;410.50;;;15.40;86.50;;;;;;6214468;23;20032;-92
2023/08/03 03:16:22;;;;;;;391.75;365.13;;;15.40;86.50;;;;;;6227140;23;20094;-93
2023/08/03 03:19:27;;;;;;;;;;;;;;;;;;;;;
2023/08/03 03:22:05;;;;;;;;;;;;;;;;;;;;;
2023/08/03 03:25:00;;;;;;;405.17;377.23;;;15.30;86.70;;;;;;6187984;23;20027;-92
2023/08/03 03:28:12;;;;;;;421.70;392.55;;;15.30;86.70;;;;;;6192848;23;20025;-91
2023/08/03 03:31:36;;;;;;;;;;;;;;;;;;;;;
2023/08/03 03:34:16;;;;;;;400.42;373.80;;;15.30;86.70;;;;;;6121252;23;20783;-93
2023/08/03 03:36:54;;;;;;;;;;;;;;;;;;;;;
2023/08/03 03:39:59;;;;;;;;;;;;;;;;;;;;;
2023/08/03 03:42:35;;;;;;;;;;;;;;;;;;;;;
2023/08/03 03:48:28;;;;;;;428.38;397.35;;;15.30;86.90;;;;;;6100214;23;20077;-92
2023/08/03 03:51:32;;;;;;;442.83;410.63;;;15.30;86.90;;;;;;6073261;23;20067;-93
2023/08/03 03:54:07;;;;;;;415.13;384.83;;;15.40;86.90;;;;;;6070203;23;20353;-91
2023/08/03 03:56:33;;;;;;;411.48;384.25;;;15.30;86.90;;;;;;6068643;23;20664;-94
2023/08/03 03:59:20;;;;;;;468.23;434.80;;;15.30;86.90;;;;;;6031790;23;20026;-93
2023/08/03 04:01:46;;;;;;;428.15;399.50;;;15.30;86.90;;;;;;6166718;23;20103;-90
2023/08/03 04:04:15;;;;;;;455.08;422.00;;;15.30;86.90;;;;;;6216052;23;20088;-91
2023/08/03 04:06:43;;;;;;;484.77;448.83;;;15.30;86.90;;;;;;6188335;23;20019;-90
2023/08/03 04:09:09;;;;;;;442.83;412.20;;;15.30;86.90;;;;;;6190029;23;20020;-90
2023/08/03 04:11:38;;;;;;;474.80;440.85;;;15.30;87.00;;;;;;6216063;23;20074;-90
2023/08/03 04:14:06;;;;;;;504.70;466.45;;;15.30;86.90;;;;;;6189885;23;20020;-92
2023/08/03 04:16:32;;;;;;;455.83;424.95;;;15.30;86.90;;;;;;6213444;23;20020;-92
2023/08/03 04:18:58;;;;;;;449.40;419.05;;;15.30;87.00;;;;;;6187841;23;20016;-91
2023/08/03 04:21:27;;;;;;;463.02;431.48;;;15.40;87.00;;;;;;6191865;23;20498;-92
2023/08/03 04:23:52;;;;;;;487.77;451.70;;;15.40;87.00;;;;;;6178190;22;20032;-92
2023/08/03 04:26:26;;;;;;;505.73;467.63;;;15.30;87.00;;;;;;6211784;23;20422;-93
2023/08/03 04:28:52;;;;;;;454.38;423.42;;;15.40;87.10;;;;;;6209544;23;20020;-92
2023/08/03 04:31:18;;;;;;;471.50;440.35;;;15.40;87.00;;;;;;6189628;23;20024;-90
2023/08/03 04:33:49;;;;;;;518.95;481.25;;;15.40;87.00;;;;;;6212557;23;20024;-91
2023/08/03 04:36:17;;;;;;;;;;;15.40;87.00;;;;;;6190672;23;20026;-93
2023/08/03 04:38:45;;;;;;;360.98;336.48;;;15.40;87.10;;;;;;6209343;23;19922;-90
2023/08/03 04:41:14;;;;;;;442.17;410.02;;;15.40;87.10;;;;;;6190270;23;20020;-91
2023/08/03 04:43:42;;;;;;;506.73;469.55;;;15.40;87.10;;;;;;6204541;22;20474;-92
2023/08/03 04:46:11;;;;;;;525.25;486.30;;;15.50;87.10;;;;;;6215212;23;20028;-94
2023/08/03 04:48:37;;;;;;;526.65;487.88;;;15.50;87.10;;;;;;6195814;22;20102;-92
2023/08/03 04:51:09;;;;;;;554.47;513.53;;;15.50;87.10;;;;;;6190272;23;20471;-89
2023/08/03 04:53:34;;;;;;;546.35;505.13;;;15.50;87.00;;;;;;6163517;23;20024;-90
2023/08/03 04:56:01;;;;;;;479.23;446.65;;;15.50;87.10;;;;;;6215667;23;20023;-91
2023/08/03 04:58:32;;;;;;;539.25;498.90;;;15.60;87.10;;;;;;6196086;22;20535;-92
2023/08/03 05:00:58;;;;;;;485.88;453.02;;;15.60;87.10;;;;;;6215421;23;20630;-91
2023/08/03 05:03:26;;;;;;;537.58;498.08;;;15.60;87.10;;;;;;6213783;23;20094;-92
2023/08/03 05:06:15;;;;;;;555.50;513.30;;;15.60;87.10;;;;;;6215149;23;20023;-93
2023/08/03 05:09:11;;;;;;;476.08;444.10;;;15.60;87.10;;;;;;6189469;23;20035;-92
2023/08/03 05:12:26;;;;;;;;;;;;;;;;;;;;;
2023/08/03 05:15:28;;;;;;;438.65;409.23;;;15.60;86.90;;;;;;6215638;22;20028;-92
2023/08/03 05:17:54;;;;;;;447.88;418.50;;;15.60;86.90;;;;;;6193158;22;20024;-92
2023/08/03 05:20:20;;;;;;;505.20;470.50;;;15.60;86.80;;;;;;6189919;23;20055;-90
2023/08/03 05:22:59;;;;;;;519.70;484.02;;;15.60;86.80;;;;;;6175352;22;20035;-92
2023/08/03 05:25:38;;;;;;;481.75;449.13;;;15.60;86.70;;;;;;6219975;23;20363;-90
2023/08/03 05:28:37;;;;;;;588.22;545.78;;;15.60;86.80;;;;;;6199575;22;20101;-91
2023/08/03 05:31:04;;;;;;;482.63;449.35;;;15.60;86.60;;;;;;6192397;23;20020;-90
2023/08/03 05:34:16;;;;;;;;;;;;;;;;;;;;;
2023/08/03 05:37:06;;;;;;;465.45;434.15;;;15.60;86.40;;;;;;6233083;23;20095;-92
2023/08/03 05:39:35;;;;;;;483.83;451.13;;;15.60;86.70;;;;;;6215993;23;20115;-90
2023/08/03 05:42:18;;;;;;;527.13;489.83;;;15.60;86.70;;;;;;6192342;23;20016;-91
2023/08/03 05:45:00;;;;;;;532.63;494.08;;;15.80;86.50;;;;;;6213738;23;20020;-92
2023/08/03 05:47:29;;;;;;;518.80;483.35;;;15.80;86.40;;;;;;6173434;22;20024;-90
2023/08/03 05:50:20;;;;;;;559.40;519.50;;;15.80;86.30;;;;;;6216498;23;20442;-91
2023/08/03 05:52:46;;;;;;;514.60;479.63;;;15.80;86.40;;;;;;6240069;23;20481;-90
2023/08/03 05:55:20;;;;;;;523.88;488.02;;;15.80;86.10;;;;;;6216974;23;20017;-91
2023/08/03 05:57:46;;;;;;;522.78;487.17;;;15.80;85.90;;;;;;6193431;23;20438;-91
2023/08/03 06:00:22;;;;;;;489.13;455.85;;;15.80;85.90;;;;;;6217606;23;20108;-96
2023/08/03 06:03:03;;;;;;;522.78;484.60;;;15.80;85.80;;;;;;6212796;22;20023;-93
2023/08/03 06:06:15;;;;;;;520.92;485.98;;;15.80;86.10;;;;;;6208157;23;20354;-92
2023/08/03 06:08:46;;;;;;;501.88;467.42;;;16.00;86.20;;;;;;6163842;22;20019;-91
2023/08/03 06:11:36;;;;;;;544.63;506.52;;;16.00;86.20;;;;;;6201870;23;20027;-92
2023/08/03 06:14:05;;;;;;;548.25;510.13;;;16.10;85.50;;;;;;6165046;22;20027;-91
2023/08/03 06:16:44;;;;;;;549.42;510.13;;;16.00;85.30;;;;;;6176876;23;20024;-91
2023/08/03 06:19:58;;;;;;;542.75;505.33;;;16.00;85.40;;;;;;6197597;23;20016;-94
2023/08/03 06:22:24;;;;;;;550.00;511.00;;;16.10;85.50;;;;;;6197191;22;20028;-91
2023/08/03 06:24:51;;;;;;;573.45;532.80;;;16.10;85.50;;;;;;6199527;23;20020;-91
2023/08/03 06:27:17;;;;;;;563.33;524.17;;;16.10;85.20;;;;;;6154851;22;20016;-93
2023/08/03 06:29:45;;;;;;;561.80;522.40;;;16.10;84.90;;;;;;6200953;23;20019;-93
2023/08/03 06:32:34;;;;;;;;;;;16.10;85.00;;;;;;6187062;22;20078;-92
2023/08/03 06:35:31;;;;;;;493.60;458.90;;;16.00;84.90;;;;;;6174549;23;19925;-91
2023/08/03 06:38:20;;;;;;;;;;;;;;;;;;;;;
2023/08/03 06:40:50;;;;;;;502.52;467.50;;;16.10;85.20;;;;;;6224893;22;20031;-92
2023/08/03 06:43:23;;;;;;;576.90;534.65;;;16.20;85.10;;;;;;6215543;22;20107;-92
2023/08/03 06:45:50;;;;;;;538.97;500.83;;;16.20;84.90;;;;;;6201028;23;20135;-91
2023/08/03 06:48:16;;;;;;;617.60;571.22;;;16.40;84.70;;;;;;6166814;23;20024;-93
2023/08/03 06:50:45;;;;;;;655.10;604.83;;;16.40;84.90;;;;;;6176292;23;20020;-91
2023/08/03 06:53:13;;;;;;;636.03;587.95;;;16.40;84.80;;;;;;6174941;22;20078;-91
2023/08/03 06:55:52;;;;;;;;;;;;;;;;;;;;;
2023/08/03 06:58:28;;;;;;;601.85;557.47;;;16.60;84.60;;;;;;6217813;23;20012;-92
2023/08/03 07:00:58;;;;;;;597.05;554.35;;;16.60;84.40;;;;;;6200514;23;20055;-93
2023/08/03 07:03:26;;;;;;;584.03;542.13;;;16.60;84.20;;;;;;6190847;22;20535;-90
2023/08/03 07:05:55;;;;;;;584.53;542.80;;;16.60;84.10;;;;;;6199368;23;20024;-93
2023/08/03 07:08:21;;;;;;;599.13;556.45;;;16.60;84.20;;;;;;6191616;23;20047;-91
2023/08/03 07:10:49;;;;;;;620.10;574.63;;;16.70;84.30;;;;;;6175306;23;20043;-91
2023/08/03 07:13:15;;;;;;;590.88;548.08;;;16.70;84.50;;;;;;6173077;23;20103;-90
2023/08/03 07:15:41;;;;;;;610.85;564.90;;;16.80;84.20;;;;;;6200660;23;20107;-91
2023/08/03 07:18:07;;;;;;;614.22;568.63;;;16.90;84.00;;;;;;6132568;22;20015;-91
2023/08/03 07:20:39;;;;;;;636.65;589.97;;;16.90;84.10;;;;;;6175930;23;20082;-91
2023/08/03 07:23:07;;;;;;;633.40;586.88;;;17.00;84.30;;;;;;6198323;23;20121;-91
2023/08/03 07:25:35;;;;;;;623.63;577.13;;;17.20;84.00;;;;;;6174682;23;20020;-93
2023/08/03 07:28:01;;;;;;;630.38;583.95;;;17.20;83.00;;;;;;6204641;23;20055;-90
2023/08/03 07:30:29;;;;;;;698.75;643.00;;;17.30;82.70;;;;;;6175956;23;20086;-92
2023/08/03 07:32:57;;;;;;;660.75;608.85;;;17.30;82.10;;;;;;6175370;23;20087;-90
2023/08/03 07:35:23;;;;;;;642.05;592.00;;;17.40;82.10;;;;;;6176732;23;20024;-91
2023/08/03 07:37:52;;;;;;;641.30;593.30;;;17.40;81.90;;;;;;6221207;23;20027;-91
2023/08/03 07:40:21;;;;;;;665.25;614.47;;;17.50;82.10;;;;;;6199742;23;20059;-94
2023/08/03 07:42:47;;;;;;;649.03;599.63;;;17.50;81.60;;;;;;6186584;23;20035;-93
2023/08/03 07:45:15;;;;;;;680.15;629.10;;;17.50;81.20;;;;;;6152520;23;20020;-91
2023/08/03 07:47:43;;;;;;;699.58;643.60;;;17.50;81.00;;;;;;6179715;23;20032;-90
2023/08/03 07:50:12;;;;;;;648.03;598.85;;;17.60;81.10;;;;;;6147456;23;20052;-90
2023/08/03 07:52:39;;;;;;;713.42;655.40;;;17.60;81.10;;;;;;6197826;23;20032;-91
2023/08/03 07:55:10;;;;;;;661.65;612.83;;;17.70;81.10;;;;;;6174807;23;20030;-91
2023/08/03 07:57:36;;;;;;;746.35;684.72;;;17.80;81.10;;;;;;6192396;23;20026;-91
2023/08/03 08:00:03;;;;;;;650.45;602.42;;;17.80;80.90;;;;;;6150978;23;20609;-89
2023/08/03 08:02:29;;;;;;;709.03;651.40;;;17.80;80.90;;;;;;6199323;23;20024;-91
2023/08/03 08:04:57;;;;;;;647.88;599.85;;;17.80;81.00;;;;;;6225559;23;20074;-90
2023/08/03 08:07:23;;;;;;;709.88;651.83;;;17.80;80.70;;;;;;6171227;22;20485;-90
2023/08/03 08:09:53;;;;;;;669.20;619.00;;;17.80;81.10;;;;;;6175619;23;20051;-93
2023/08/03 08:12:19;;;;;;;650.60;601.78;;;17.70;80.00;;;;;;6198543;22;20019;-92
2023/08/03 08:15:05;;;;;;;673.03;620.08;;;17.80;80.30;;;;;;6202294;23;20635;-91
2023/08/03 08:17:31;;;;;;;706.13;648.13;;;17.80;78.80;;;;;;6207529;22;20079;-90
2023/08/03 08:19:57;;;;;;;704.58;649.10;;;17.90;79.20;;;;;;6201230;23;20020;-90
2023/08/03 08:22:23;;;;;;;684.40;631.65;;;18.00;79.00;;;;;;6199317;22;20040;-91
2023/08/03 08:24:54;;;;;;;786.33;718.05;;;18.10;79.20;;;;;;6175279;23;20016;-92
2023/08/03 08:27:20;;;;;;;720.60;663.40;;;18.10;78.60;;;;;;6194604;22;20086;-91
2023/08/03 08:29:46;;;;;;;651.33;601.35;;;18.00;78.70;;;;;;6199876;23;20466;-90
2023/08/03 08:32:15;;;;;;;685.83;631.80;;;18.00;78.60;;;;;;6198771;22;20016;-91
2023/08/03 08:34:44;;;;;;;706.25;648.20;;;18.00;78.50;;;;;;6228192;23;20023;-91
2023/08/03 08:37:10;;;;;;;669.45;617.78;;;18.10;78.10;;;;;;6174184;23;20015;-90
2023/08/03 08:39:39;;;;;;;625.58;578.95;;;18.20;78.50;;;;;;6178157;23;20026;-91
2023/08/03 08:42:12;;;;;;;669.03;616.67;;;18.30;78.60;;;;;;6159117;22;20027;-90
2023/08/03 08:44:43;;;;;;;685.17;631.80;;;18.50;78.90;;;;;;6174538;23;20106;-91
2023/08/03 08:47:09;;;;;;;669.72;616.88;;;18.60;78.50;;;;;;6194381;22;20907;-91
2023/08/03 08:49:35;;;;;;;783.60;717.95;;;18.60;78.50;;;;;;6201886;23;20088;-90
2023/08/03 08:52:02;;;;;;;738.85;678.92;;;18.60;78.10;;;;;;6200235;23;20020;-91
2023/08/03 08:54:32;;;;;;;719.92;662.15;;;18.50;78.30;;;;;;6197460;23;20020;-91
2023/08/03 08:56:58;;;;;;;702.55;647.75;;;18.40;78.10;;;;;;6193622;23;20016;-90
2023/08/03 08:59:23;;;;;;;688.60;635.72;;;18.40;78.20;;;;;;6200371;23;20415;-90
2023/08/03 09:01:53;;;;;;;744.92;685.13;;;18.40;78.60;;;;;;6174302;23;20102;-90
2023/08/03 09:04:30;;;;;;;666.28;615.30;;;18.40;78.30;;;;;;6222260;23;20024;-90
2023/08/03 09:06:56;;;;;;;694.78;640.83;;;18.50;78.20;;;;;;6196158;23;20016;-91
2023/08/03 09:09:44;;;;;;;703.20;648.90;;;18.60;78.00;;;;;;6135908;22;20019;-92
2023/08/03 09:12:24;;;;;;;692.75;639.13;;;18.80;78.30;;;;;;6198709;22;20731;-91
2023/08/03 09:14:59;;;;;;;646.13;595.90;;;18.90;77.30;;;;;;6200028;23;20024;-92
2023/08/03 09:17:26;;;;;;;723.90;664.30;;;18.80;77.70;;;;;;6191771;22;20489;-88
2023/08/03 09:19:53;;;;;;;675.85;623.80;;;18.80;77.60;;;;;;6211998;23;20023;-90
2023/08/03 09:22:20;;;;;;;695.78;641.72;;;18.70;77.80;;;;;;6221576;22;20099;-91
2023/08/03 09:24:47;;;;;;;724.72;666.50;;;18.80;78.00;;;;;;6198158;23;20236;-91
2023/08/03 09:27:16;;;;;;;711.03;654.65;;;18.90;77.90;;;;;;6191978;22;20051;-91
2023/08/03 09:29:43;;;;;;;660.85;609.83;;;19.00;78.10;;;;;;6199237;23;20127;-92
2023/08/03 09:32:18;;;;;;;699.17;643.40;;;19.10;77.50;;;;;;6197758;22;20024;-90
2023/08/03 09:34:44;;;;;;;662.67;612.75;;;19.20;77.50;;;;;;6197007;23;20123;-91
2023/08/03 09:37:16;;;;;;;774.00;707.35;;;19.30;77.50;;;;;;6219262;23;20016;-91
2023/08/03 09:39:53;;;;;;;777.35;709.92;;;19.40;76.20;;;;;;6174897;23;20745;-90
2023/08/03 09:42:23;;;;;;;804.25;730.25;;;19.50;75.60;;;;;;6186792;22;20026;-89
2023/08/03 09:45:01;;;;;;;671.22;618.50;;;19.50;75.50;;;;;;6199758;23;20023;-90
2023/08/03 09:47:36;;;;;;;820.30;745.65;;;19.50;76.00;;;;;;6182551;22;20028;-91
2023/08/03 09:50:06;;;;;;;825.28;749.45;;;19.50;75.80;;;;;;6175436;23;20334;-90
2023/08/03 09:52:46;;;;;;;692.55;636.70;;;19.40;75.80;;;;;;6197459;23;20580;-91
2023/08/03 09:55:20;;;;;;;856.30;767.40;;;19.50;76.10;;;;;;6200526;23;20462;-94
2023/08/03 09:58:08;;;;;;;842.47;761.00;;;19.50;74.30;;;;;;6192807;23;20020;-91
2023/08/03 10:00:37;;;;;;;842.83;760.22;;;19.70;75.00;;;;;;6200003;23;20026;-91
2023/08/03 10:03:40;;;;;;;825.47;747.72;;;19.80;74.40;;;;;;6200102;23;20012;-90
2023/08/03 10:06:21;;;;;;;822.00;741.60;;;19.80;73.70;;;;;;6226844;23;20020;-89
2023/08/03 10:09:01;;;;;;;868.15;777.58;;;19.80;75.10;;;;;;6185969;22;20030;-91
2023/08/03 10:12:04;;;;;;;791.65;718.88;;;19.70;74.80;;;;;;6202043;23;20020;-91
2023/08/03 10:14:40;;;;;;;744.97;683.35;;;19.50;75.50;;;;;;6220347;23;20027;-90
2023/08/03 10:17:07;;;;;;;712.42;655.05;;;19.50;76.10;;;;;;6195352;22;20098;-89
2023/08/03 10:19:34;;;;;;;749.45;684.10;;;19.40;76.30;;;;;;6198770;23;20020;-89
2023/08/03 10:22:00;;;;;;;658.70;607.85;;;19.30;76.40;;;;;;6199511;23;20514;-88
2023/08/03 10:24:29;;;;;;;924.30;814.10;;;19.30;76.60;;;;;;6200352;23;20346;-91
2023/08/03 10:27:23;;;;;;;686.03;632.05;;;19.30;76.60;;;;;;6170533;23;20020;-88
2023/08/03 10:30:03;;;;;;;700.13;646.17;;;19.20;76.10;;;;;;6200271;23;20024;-90
2023/08/03 10:32:32;;;;;;;700.63;646.83;;;19.30;76.90;;;;;;6167723;22;20020;-90
2023/08/03 10:35:39;;;;;;;785.00;717.63;;;19.50;77.10;;;;;;6174967;23;20258;-90
2023/08/03 10:38:50;;;;;;;742.63;680.55;;;19.70;75.50;;;;;;6199657;23;20027;-91
2023/08/03 10:41:41;;;;;;;776.95;708.25;;;19.70;75.40;;;;;;6180017;23;20043;-91
2023/08/03 10:44:12;;;;;;;788.35;717.28;;;19.90;74.90;;;;;;6196706;23;20577;-90
2023/08/03 10:47:29;;;;;;;771.70;701.05;;;20.00;75.90;;;;;;6199753;23;20016;-91
2023/08/03 10:49:44;;;;;;;796.92;723.65;;;20.00;75.50;;;;;;6168091;23;20067;-90
2023/08/03 10:52:17;;;;;;;821.88;743.05;;;19.90;73.80;;;;;;6182528;22;20024;-92
2023/08/03 10:54:44;;;;;;;828.90;747.67;;;19.70;73.50;;;;;;6217192;23;20027;-89
2023/08/03 10:57:14;;;;;;;783.28;710.33;;;19.70;74.70;;;;;;6179940;22;20158;-89
2023/08/03 10:59:48;;;;;;;805.20;730.67;;;19.60;74.90;;;;;;6174062;23;20016;-90
2023/08/03 11:02:18;;;;;;;792.88;720.35;;;19.60;74.90;;;;;;6198651;22;20020;-92
2023/08/03 11:04:50;;;;;;;789.38;718.22;;;19.70;75.30;;;;;;6220333;23;20020;-90
2023/08/03 11:07:20;;;;;;;748.20;683.30;;;19.80;75.30;;;;;;6166277;22;20026;-90
2023/08/03 11:09:49;;;;;;;766.80;694.90;;;19.70;74.50;;;;;;6195460;23;20047;-91
2023/08/03 11:12:18;;;;;;;864.60;778.15;;;19.70;74.80;;;;;;6157724;22;20062;-92
2023/08/03 11:14:46;;;;;;;820.17;742.83;;;19.90;74.90;;;;;;6196708;23;20023;-91
2023/08/03 11:17:21;;;;;;;873.03;782.08;;;20.00;74.50;;;;;;6165690;22;20023;-90
2023/08/03 11:19:50;;;;;;;814.55;737.55;;;20.00;74.70;;;;;;6172763;23;20476;-90
2023/08/03 11:22:21;;;;;;;862.08;775.55;;;20.10;74.60;;;;;;6183856;22;20107;-90
2023/08/03 11:24:51;;;;;;;954.20;828.38;;;20.10;74.30;;;;;;6196205;23;20024;-91
2023/08/03 11:27:19;;;;;;;944.87;825.20;;;20.10;73.70;;;;;;6180560;22;20828;-93
2023/08/03 11:29:45;;;;;;;921.47;802.63;;;20.10;71.90;;;;;;6200133;23;20023;-91
2023/08/03 11:32:21;;;;;;;955.17;832.20;;;20.10;72.90;;;;;;6198671;22;20611;-89
2023/08/03 11:34:47;;;;;;;857.47;770.67;;;20.00;72.70;;;;;;6199199;23;20694;-91
2023/08/03 11:37:16;;;;;;;864.42;774.95;;;20.10;71.90;;;;;;6196019;23;20069;-92
2023/08/03 11:39:44;;;;;;;925.45;817.67;;;20.10;72.30;;;;;;6201016;23;20091;-91
2023/08/03 11:42:25;;;;;;;1029.65;854.20;;;20.10;72.00;;;;;;6174443;22;20016;-93
2023/08/03 11:44:51;;;;;;;871.08;779.25;;;20.30;71.20;;;;;;6199592;23;20016;-91
2023/08/03 11:47:19;;;;;;;660.25;610.47;;;20.30;72.30;;;;;;6194769;22;20028;-92
2023/08/03 11:49:48;;;;;;;1001.38;851.15;;;20.30;72.30;;;;;;6199435;23;20031;-90
2023/08/03 11:52:23;;;;;;;1004.33;856.88;;;20.10;72.50;;;;;;6189790;22;20024;-92
2023/08/03 11:54:51;;;;;;;891.63;794.30;;;20.10;72.30;;;;;;6200512;23;20039;-91
2023/08/03 12:00:04;;;;;;;954.95;823.92;;;20.20;72.70;;;;;;6223124;23;20095;-90
2023/08/03 12:02:41;;;;;;;701.95;648.65;;;20.20;72.60;;;;;;6159262;22;20231;-91
2023/08/03 12:05:07;;;;;;;1085.57;882.28;;;20.30;72.50;;;;;;6196579;23;20024;-90
2023/08/03 12:07:43;;;;;;;848.85;764.92;;;20.30;72.70;;;;;;6192450;23;20012;-91
2023/08/03 12:10:14;;;;;;;911.38;814.85;;;20.20;72.50;;;;;;6198618;23;20020;-90
2023/08/03 12:12:43;;;;;;;872.30;779.28;;;20.00;73.60;;;;;;6197818;23;20085;-90
2023/08/03 12:15:10;;;;;;;759.33;694.50;;;19.90;74.10;;;;;;6173403;23;20069;-92
2023/08/03 12:17:36;;;;;;;756.03;691.03;;;19.70;75.00;;;;;;6192414;23;20154;-90
2023/08/03 12:20:02;;;;;;;701.63;645.42;;;19.50;75.70;;;;;;6173349;23;20027;-90
2023/08/03 12:22:32;;;;;;;694.63;639.78;;;19.40;76.10;;;;;;6151276;22;20203;-93
2023/08/03 12:24:58;;;;;;;723.55;664.22;;;19.20;76.70;;;;;;6195701;23;20127;-90
2023/08/03 12:27:36;;;;;;;828.55;753.45;;;19.10;76.90;;;;;;6166937;22;20103;-90
2023/08/03 12:30:11;;;;;;;785.80;713.70;;;19.10;77.00;;;;;;6173359;23;20343;-91
2023/08/03 12:32:37;;;;;;;730.63;667.95;;;19.00;77.00;;;;;;6196782;23;20334;-90
2023/08/03 12:35:03;;;;;;;874.00;785.42;;;19.00;77.20;;;;;;6223609;23;20887;-88
2023/08/03 12:37:32;;;;;;;823.42;745.28;;;19.00;76.90;;;;;;6169972;23;20059;-91
2023/08/03 12:39:58;;;;;;;841.63;761.70;;;18.90;76.70;;;;;;6198039;23;20446;-91
2023/08/03 12:42:23;;;;;;;806.55;730.33;;;18.90;76.60;;;;;;6186961;22;20032;-91
2023/08/03 12:44:54;;;;;;;807.38;731.90;;;18.90;76.70;;;;;;6172944;23;20020;-91
2023/08/03 12:47:20;;;;;;;611.53;561.08;;;19.00;76.60;;;;;;6192665;22;20830;-91
2023/08/03 12:49:58;;;;;;;630.72;581.40;;;18.90;76.30;;;;;;6172235;23;20103;-91
2023/08/03 12:52:25;;;;;;;630.25;581.45;;;19.00;76.30;;;;;;6222694;22;20013;-90
2023/08/03 12:54:54;;;;;;;629.85;581.70;;;19.00;76.30;;;;;;6194324;23;20016;-92
2023/08/03 12:57:21;;;;;;;628.45;579.95;;;19.10;76.30;;;;;;6166124;22;20020;-90
2023/08/03 12:59:46;;;;;;;629.05;579.47;;;19.00;76.10;;;;;;6169700;23;20537;-90
2023/08/03 13:02:12;;;;;;;674.83;623.20;;;19.00;76.20;;;;;;6181133;22;20073;-90
2023/08/03 13:04:43;;;;;;;607.78;560.78;;;18.90;76.20;;;;;;6195773;23;20103;-90
2023/08/03 13:07:09;;;;;;;610.85;563.97;;;18.90;76.20;;;;;;6190145;22;20020;-91
2023/08/03 13:09:37;;;;;;;631.72;584.00;;;18.80;76.20;;;;;;6193841;23;20395;-90
2023/08/03 13:12:03;;;;;;;608.20;561.72;;;18.80;76.20;;;;;;6192846;22;20451;-90
2023/08/03 13:14:29;;;;;;;633.80;583.88;;;18.70;76.40;;;;;;6168455;23;20023;-90
2023/08/03 13:16:55;;;;;;;623.70;576.55;;;18.70;76.30;;;;;;6189721;23;20023;-89
2023/08/03 13:19:27;;;;;;;615.45;568.55;;;18.70;76.20;;;;;;6145460;23;20020;-90
2023/08/03 13:21:53;;;;;;;585.22;539.80;;;18.80;76.10;;;;;;6223162;23;20122;-90
2023/08/03 13:24:20;;;;;;;588.47;542.67;;;18.90;76.00;;;;;;6193073;23;20886;-93
2023/08/03 13:26:47;;;;;;;625.25;574.40;;;18.90;75.70;;;;;;6193874;23;20669;-90
2023/08/03 13:29:20;;;;;;;595.15;549.35;;;19.00;75.50;;;;;;6208217;22;20134;-90
2023/08/03 13:31:59;;;;;;;;;;;;;;;;;;;;;
2023/08/03 13:34:30;;;;;;;683.25;624.17;;;18.80;75.30;;;;;;6219832;23;20066;-91
2023/08/03 13:37:01;;;;;;;579.65;533.40;;;18.80;75.00;;;;;;6192293;23;20019;-91
2023/08/03 13:39:27;;;;;;;676.85;617.83;;;18.80;75.00;;;;;;6196162;23;20020;-91
2023/08/03 13:41:56;;;;;;;597.03;551.22;;;18.70;75.10;;;;;;6197211;23;20819;-90
2023/08/03 13:44:22;;;;;;;613.70;565.30;;;18.80;75.20;;;;;;6168722;23;20051;-91
2023/08/03 13:46:53;;;;;;;619.72;571.42;;;18.70;75.20;;;;;;6193459;23;20161;-89
2023/08/03 13:49:19;;;;;;;615.38;568.67;;;18.70;75.50;;;;;;6170856;23;20024;-90
2023/08/03 13:51:45;;;;;;;610.63;563.63;;;18.70;75.30;;;;;;6174110;23;20026;-89
2023/08/03 13:54:30;;;;;;;;;;;;;;;;;;;;;
2023/08/03 13:57:08;;;;;;;599.30;553.47;;;18.80;75.50;;;;;;6183382;22;20109;-90